This is the latest recevied weather packets stored in our database for station/object OK3MS-5. If no packets are shown the sender has not sent any weather packets the latest 10 day(s).
| Time | Temp. | Humidity | Pressure | Rain* | Wind** | Luminosity | Snow |
|---|---|---|---|---|---|---|---|
| 1787496304 | 21.11° C | 48% | 1019.3 hPa | 0 mm | - | 431 W/m² | - |
| 1787496004 | 21.11° C | 48% | 1019.2 hPa | 0 mm | - | 488 W/m² | - |
| 1787495704 | 21.67° C | 44% | 1019 hPa | 0 mm | - | 146 W/m² | - |
| 1787495403 | 21.11° C | 44% | 1019.2 hPa | 0 mm | - | 360 W/m² | - |
| 1787495104 | 21.11° C | 49% | 1019.3 hPa | 0 mm | - | 148 W/m² | - |
| 1787494805 | 21.11° C | 49% | 1019.2 hPa | 0 mm | - | 139 W/m² | - |
| 1787494504 | 22.22° C | 46% | 1019.1 hPa | 0 mm | - | 205 W/m² | - |
| 1787494202 | 22.22° C | 44% | 1019 hPa | 0 mm | - | 555 W/m² | - |
| 1787493907 | 22.22° C | 44% | 1019.1 hPa | 0 mm | - | 577 W/m² | - |
| 1787493603 | 22.22° C | 48% | 1019.2 hPa | 0 mm | - | 555 W/m² | - |
| 1787493303 | 22.78° C | 46% | 1019 hPa | 0 mm | - | 550 W/m² | - |
| 1787493003 | 21.67° C | 49% | 1019.2 hPa | 0 mm | - | 557 W/m² | - |
| 1787492704 | 21.11° C | 48% | 1019.4 hPa | 0 mm | - | 565 W/m² | - |
| 1787492403 | 20.56° C | 52% | 1019.4 hPa | 0 mm | - | 608 W/m² | - |
| 1787492102 | 21.11° C | 49% | 1019.4 hPa | 0 mm | - | 121 W/m² | - |
| 1787491804 | 21.67° C | 49% | 1019.2 hPa | 0 mm | - | 514 W/m² | - |
| 1787491504 | 21.11° C | 47% | 1019.3 hPa | 0 mm | - | 434 W/m² | - |
| 1787491202 | 21.11° C | 49% | 1019.5 hPa | 0 mm | - | 380 W/m² | - |
| 1787490904 | 21.11° C | 48% | 1019.4 hPa | 0 mm | - | 207 W/m² | - |
| 1787490603 | 20.56° C | 48% | 1019.6 hPa | 0 mm | - | 686 W/m² | - |
| 1787490306 | 20.56° C | 51% | 1019.6 hPa | 0 mm | - | 637 W/m² | - |
| 1787490006 | 21.11° C | 49% | 1019.6 hPa | 0 mm | - | 183 W/m² | - |
| 1787489704 | 20.56° C | 48% | 1019.5 hPa | 0 mm | - | 243 W/m² | - |
| 1787489402 | 20.56° C | 47% | 1019.5 hPa | 0 mm | - | 132 W/m² | - |
| 1787489104 | 21.11° C | 50% | 1019.7 hPa | 0 mm | - | 317 W/m² | - |
* Rain latest hour (hover to see other rain measurements)
** Current wind speed in m/s (hover to see current wind gust speed)